Time;durP1;ratioP1;P1;durP2;ratioP2;P2;SDS_P1;SDS_P2;PMS_P1;PMS_P2;Temp;Humidity;BMP_temperature;BMP_pressure;BME280_temperature;BME280_humidity;BME280_pressure;Samples;Min_cycle;Max_cycle;Signal;HPM_P1;HPM_P2
2022/11/18 00:01:13;;;;;;;33.60;23.75;;;17.10;61.50;;;;;;5040020;28;20052;-85
2022/11/18 00:03:40;;;;;;;37.50;26.13;;;16.80;62.40;;;;;;5044428;28;20091;-89
2022/11/18 00:06:10;;;;;;;40.28;27.42;;;16.90;62.60;;;;;;5052798;28;20474;-93
2022/11/18 00:08:36;;;;;;;42.17;27.95;;;17.10;62.00;;;;;;5034598;28;20536;-86
2022/11/18 00:11:08;;;;;;;39.55;27.25;;;17.20;61.70;;;;;;5048685;28;20034;-85
2022/11/18 00:16:19;;;;;;;40.90;27.45;;;17.30;61.00;;;;;;5042154;28;20027;-86
2022/11/18 00:18:45;;;;;;;45.22;28.58;;;17.10;61.30;;;;;;5040490;28;20024;-85
2022/11/18 00:21:14;;;;;;;40.63;28.63;;;17.10;61.30;;;;;;5043103;28;20029;-87
2022/11/18 00:23:40;;;;;;;39.75;27.75;;;17.10;61.60;;;;;;5038913;28;20426;-84
2022/11/18 00:26:12;;;;;;;39.38;27.85;;;17.00;62.00;;;;;;5033839;28;20478;-92
2022/11/18 00:28:39;;;;;;;45.53;29.35;;;16.90;62.50;;;;;;5034104;28;20026;-90
2022/11/18 00:31:12;;;;;;;39.42;28.60;;;17.10;61.70;;;;;;5048770;28;20024;-88
2022/11/18 00:33:39;;;;;;;41.95;29.00;;;17.20;61.70;;;;;;5051288;28;20036;-90
2022/11/18 00:36:07;;;;;;;42.95;28.98;;;17.40;61.30;;;;;;5043888;28;20032;-88
2022/11/18 00:38:33;;;;;;;36.60;24.80;;;17.50;61.10;;;;;;5043629;28;20021;-93
2022/11/18 00:41:05;;;;;;;36.08;25.58;;;17.60;60.90;;;;;;5053668;28;20086;-85
2022/11/18 00:43:31;;;;;;;34.67;24.65;;;17.10;61.50;;;;;;5048888;28;20029;-85
2022/11/18 00:45:56;;;;;;;41.65;28.45;;;16.50;63.10;;;;;;5049276;28;20037;-88
2022/11/18 00:48:23;;;;;;;40.65;26.65;;;16.10;64.80;;;;;;5033877;28;20026;-85
2022/11/18 00:50:50;;;;;;;41.13;28.95;;;16.40;64.30;;;;;;5045029;28;20029;-85
2022/11/18 00:53:16;;;;;;;38.58;26.65;;;16.80;63.60;;;;;;5033018;28;20025;-85
2022/11/18 00:55:42;;;;;;;42.33;28.35;;;17.10;62.50;;;;;;5036761;28;20036;-90
2022/11/18 00:58:09;;;;;;;45.42;30.80;;;17.40;62.00;;;;;;5041403;28;20539;-83
2022/11/18 01:00:34;;;;;;;42.33;28.73;;;17.60;61.50;;;;;;5052440;28;20116;-86
2022/11/18 01:03:01;;;;;;;40.58;28.83;;;17.70;60.90;;;;;;5048877;28;20051;-85
2022/11/18 01:05:27;;;;;;;43.63;31.08;;;17.80;60.60;;;;;;5032723;28;20038;-86
2022/11/18 01:07:52;;;;;;;44.30;28.27;;;17.80;60.80;;;;;;5050811;28;20075;-84
2022/11/18 01:10:37;;;;;;;39.85;27.08;;;17.80;60.60;;;;;;5057479;28;20032;-86
2022/11/18 01:13:19;;;;;;;37.50;25.92;;;17.60;60.80;;;;;;5054409;28;20036;-89
2022/11/18 01:15:56;;;;;;;40.10;28.17;;;17.30;61.60;;;;;;5044688;28;20025;-92
2022/11/18 01:18:25;;;;;;;47.20;30.45;;;17.10;62.00;;;;;;5040873;28;20036;-92
2022/11/18 01:20:51;;;;;;;42.63;29.10;;;17.20;61.80;;;;;;5041260;28;20029;-93
2022/11/18 01:23:18;;;;;;;37.67;24.70;;;17.30;61.60;;;;;;5053469;28;20028;-83
2022/11/18 01:25:45;;;;;;;39.97;27.83;;;17.30;61.20;;;;;;5036002;28;20135;-93
2022/11/18 01:28:12;;;;;;;39.83;25.85;;;17.10;62.00;;;;;;5052152;28;20130;-91
2022/11/18 01:30:39;;;;;;;40.60;28.00;;;16.90;62.50;;;;;;5056288;28;20029;-83
2022/11/18 01:33:06;;;;;;;36.80;26.52;;;17.00;62.00;;;;;;5052704;28;20429;-92
2022/11/18 01:35:42;;;;;;;43.72;30.48;;;16.90;62.30;;;;;;5035788;28;20033;-85
2022/11/18 01:38:10;;;;;;;43.42;30.27;;;16.90;62.30;;;;;;5040320;28;20033;-86
2022/11/18 01:40:37;;;;;;;41.63;29.05;;;17.00;62.00;;;;;;5043675;28;20033;-87
2022/11/18 01:43:14;;;;;;;42.92;29.25;;;17.20;62.00;;;;;;5030093;28;20033;-85
2022/11/18 01:45:43;;;;;;;38.17;27.05;;;17.40;61.30;;;;;;5042551;28;20490;-87
2022/11/18 01:48:19;;;;;;;38.05;27.00;;;17.40;60.80;;;;;;5036681;28;20017;-86
2022/11/18 01:51:15;;;;;;;37.08;25.60;;;17.10;61.50;;;;;;5084021;28;20047;-87
2022/11/18 01:53:48;;;;;;;38.95;25.90;;;17.00;61.50;;;;;;5078544;28;20020;-85
2022/11/18 01:56:20;;;;;;;39.10;27.42;;;16.60;62.50;;;;;;5077608;28;20438;-87
2022/11/18 01:58:53;;;;;;;41.42;28.52;;;16.30;63.70;;;;;;5056184;28;20121;-91
2022/11/18 02:01:20;;;;;;;38.83;27.08;;;16.50;63.40;;;;;;5048360;28;20029;-88
2022/11/18 02:03:47;;;;;;;35.72;24.38;;;16.80;62.90;;;;;;5053411;28;20052;-85
2022/11/18 02:06:12;;;;;;;37.30;25.92;;;16.60;63.00;;;;;;5059839;28;20021;-84
2022/11/18 02:08:39;;;;;;;40.05;26.42;;;16.40;63.60;;;;;;5038438;28;20025;-89
2022/11/18 02:11:49;;;;;;;42.92;28.08;;;16.40;63.80;;;;;;5038730;28;20018;-87
2022/11/18 02:13:58;;;;;;;41.22;27.25;;;16.40;63.50;;;;;;5042633;28;20030;-84
2022/11/18 02:16:44;;;;;;;42.72;27.30;;;16.60;63.40;;;;;;5056716;28;20124;-85
2022/11/18 02:19:27;;;;;;;40.95;27.77;;;16.80;62.50;;;;;;5056905;28;20029;-85
2022/11/18 02:22:02;;;;;;;36.67;25.00;;;17.00;62.10;;;;;;5053017;28;20033;-92
2022/11/18 02:24:55;;;;;;;38.00;25.05;;;17.00;61.30;;;;;;5035555;28;20120;-85
2022/11/18 02:27:48;;;;;;;36.55;24.30;;;16.40;62.70;;;;;;5035099;28;20426;-89
2022/11/18 02:30:16;;;;;;;40.35;26.38;;;16.40;63.00;;;;;;5041420;28;20041;-85
2022/11/18 02:33:13;;;;;;;37.05;24.58;;;16.50;62.90;;;;;;5053181;28;20025;-85
2022/11/18 02:35:43;;;;;;;37.40;25.15;;;16.80;62.70;;;;;;5043964;28;20025;-84
2022/11/18 02:38:33;;;;;;;42.85;27.95;;;16.80;62.30;;;;;;5055027;28;20048;-84
2022/11/18 02:41:13;;;;;;;33.08;23.35;;;16.90;61.90;;;;;;5035462;28;20041;-86
2022/11/18 02:43:52;;;;;;;41.27;27.20;;;16.90;62.20;;;;;;5043376;28;20033;-93
2022/11/18 02:46:25;;;;;;;39.33;24.93;;;16.90;62.50;;;;;;5036821;28;20025;-87
2022/11/18 02:48:53;;;;;;;35.88;23.75;;;16.90;62.20;;;;;;5051678;28;20048;-93
2022/11/18 02:51:23;;;;;;;38.70;24.77;;;16.90;62.20;;;;;;5051410;28;20026;-87
2022/11/18 02:53:49;;;;;;;37.70;26.07;;;16.90;61.90;;;;;;5035604;28;20026;-93
2022/11/18 02:56:18;;;;;;;38.47;26.50;;;17.00;61.90;;;;;;5037375;28;20026;-86
2022/11/18 02:58:44;;;;;;;36.72;24.40;;;17.10;61.80;;;;;;5037070;28;20044;-90
2022/11/18 03:01:18;;;;;;;38.00;26.20;;;17.20;61.50;;;;;;5046646;28;20021;-88
2022/11/18 03:03:44;;;;;;;39.50;25.45;;;17.10;61.50;;;;;;5042171;28;20041;-87
2022/11/18 03:06:25;;;;;;;40.55;27.10;;;17.20;61.40;;;;;;5040235;28;20025;-85
2022/11/18 03:08:54;;;;;;;37.88;25.45;;;17.20;60.90;;;;;;5052251;28;20063;-88
2022/11/18 03:11:27;;;;;;;42.55;26.90;;;17.10;61.40;;;;;;5058238;28;20025;-94
2022/11/18 03:14:34;;;;;;;40.08;24.92;;;16.90;61.80;;;;;;5053889;28;20061;-92
2022/11/18 03:17:13;;;;;;;38.03;23.90;;;16.80;61.80;;;;;;5053706;28;20025;-93
2022/11/18 03:19:57;;;;;;;45.22;26.40;;;16.80;61.70;;;;;;5054415;28;20021;-94
2022/11/18 03:22:48;;;;;;;46.92;27.02;;;16.80;61.90;;;;;;5043807;28;20075;-87
2022/11/18 03:25:57;;;;;;;47.28;27.60;;;16.80;62.00;;;;;;5043702;28;20111;-93
2022/11/18 03:28:48;;;;;;;42.20;24.97;;;16.80;61.40;;;;;;5035375;28;20029;-89
2022/11/18 03:31:35;;;;;;;41.65;23.95;;;16.60;62.50;;;;;;5042727;28;20029;-91
2022/11/18 03:34:32;;;;;;;51.60;27.63;;;16.10;63.50;;;;;;5041929;28;20037;-86
2022/11/18 03:37:01;;;;;;;41.40;23.08;;;16.10;63.40;;;;;;5035546;28;20022;-87
2022/11/18 03:39:31;;;;;;;47.25;25.52;;;16.30;62.90;;;;;;5051671;28;20037;-85
2022/11/18 03:42:05;;;;;;;63.35;28.58;;;16.20;63.70;;;;;;5055136;28;20090;-86
2022/11/18 03:44:35;;;;;;;53.00;25.80;;;16.20;62.90;;;;;;5052789;28;20077;-86
2022/11/18 03:47:11;;;;;;;58.05;25.77;;;16.00;64.50;;;;;;5035242;28;20447;-85
2022/11/18 03:49:47;;;;;;;61.60;28.45;;;15.60;64.70;;;;;;5036082;28;20084;-87
2022/11/18 03:52:20;;;;;;;60.78;27.83;;;15.50;65.50;;;;;;5034402;28;20025;-85
2022/11/18 03:54:49;;;;;;;63.78;27.88;;;15.60;65.30;;;;;;5034521;28;20429;-94
2022/11/18 03:57:20;;;;;;;63.63;26.70;;;15.10;66.50;;;;;;5038630;28;20017;-85
2022/11/18 04:00:04;;;;;;;55.13;25.90;;;15.10;66.90;;;;;;5043922;28;20029;-87
2022/11/18 04:02:30;;;;;;;63.95;29.95;;;15.10;66.80;;;;;;5034354;28;20025;-85
2022/11/18 04:04:59;;;;;;;67.35;27.88;;;15.10;66.80;;;;;;5039986;28;20409;-84
2022/11/18 04:07:42;;;;;;;64.65;27.90;;;15.30;66.40;;;;;;5068924;28;20092;-93
2022/11/18 04:10:21;;;;;;;54.13;26.65;;;15.60;65.20;;;;;;5074024;28;20020;-87
2022/11/18 04:12:59;;;;;;;57.07;25.50;;;15.40;66.20;;;;;;5072938;28;20055;-85
2022/11/18 04:15:25;;;;;;;55.25;26.27;;;15.60;65.60;;;;;;5073543;28;20111;-90
2022/11/18 04:17:50;;;;;;;56.38;27.48;;;15.90;64.80;;;;;;5073944;28;20024;-87
2022/11/18 04:20:21;;;;;;;60.00;28.27;;;15.90;64.60;;;;;;5074026;28;20025;-85
2022/11/18 04:22:47;;;;;;;67.82;30.70;;;16.10;64.50;;;;;;5074600;28;20469;-91
2022/11/18 04:25:13;;;;;;;63.85;28.40;;;16.30;63.90;;;;;;5074494;28;20032;-88
2022/11/18 04:27:38;;;;;;;59.22;27.25;;;16.70;62.90;;;;;;5057059;28;20028;-86
2022/11/18 04:30:05;;;;;;;52.85;25.77;;;16.70;62.70;;;;;;5059439;28;20028;-85
2022/11/18 04:32:31;;;;;;;66.88;29.13;;;16.60;62.90;;;;;;5055341;28;20117;-94
2022/11/18 04:34:57;;;;;;;55.97;26.90;;;16.40;63.20;;;;;;5048768;28;20207;-91
2022/11/18 04:37:24;;;;;;;69.88;28.55;;;16.40;63.50;;;;;;5041057;28;20033;-85
2022/11/18 04:39:49;;;;;;;81.10;32.25;;;16.40;63.80;;;;;;5036892;28;20065;-95
2022/11/18 04:42:15;;;;;;;83.65;30.75;;;16.60;63.10;;;;;;5034763;28;20156;-87
2022/11/18 04:44:41;;;;;;;78.82;31.33;;;16.70;62.90;;;;;;5036256;28;20486;-88
2022/11/18 04:47:06;;;;;;;70.32;27.63;;;16.80;62.60;;;;;;5041538;28;20024;-94
2022/11/18 04:49:33;;;;;;;86.85;31.83;;;16.70;62.40;;;;;;5053155;28;20021;-94
2022/11/18 04:52:00;;;;;;;72.18;29.58;;;16.70;63.00;;;;;;5053092;28;20017;-91
2022/11/18 04:54:27;;;;;;;80.97;31.70;;;16.50;63.10;;;;;;5041695;28;20033;-85
2022/11/18 04:56:53;;;;;;;65.32;27.45;;;16.30;64.00;;;;;;5048434;28;20033;-85
2022/11/18 04:59:27;;;;;;;63.40;26.20;;;16.30;63.10;;;;;;5040796;28;20033;-91
2022/11/18 05:01:54;;;;;;;85.20;28.20;;;15.50;65.00;;;;;;5045187;28;20577;-85
2022/11/18 05:04:26;;;;;;;68.43;27.67;;;15.00;66.30;;;;;;5056633;28;20053;-85
2022/11/18 05:06:52;;;;;;;73.63;28.30;;;14.80;67.90;;;;;;5044198;28;20079;-85
2022/11/18 05:09:18;;;;;;;97.32;33.42;;;15.10;67.70;;;;;;5039115;28;20029;-84
2022/11/18 05:14:31;;;;;;;89.65;33.33;;;16.00;64.70;;;;;;5037023;28;20036;-88
2022/11/18 05:16:59;;;;;;;74.70;29.60;;;16.20;64.30;;;;;;5049618;28;20178;-84
2022/11/18 05:19:24;;;;;;;79.78;30.05;;;16.30;64.30;;;;;;5040498;28;20074;-86
2022/11/18 05:21:51;;;;;;;70.97;29.40;;;16.30;64.00;;;;;;5055014;28;20021;-86
2022/11/18 05:24:17;;;;;;;67.43;28.58;;;15.80;65.00;;;;;;5038424;28;20425;-87
2022/11/18 05:26:43;;;;;;;86.75;33.17;;;15.50;65.30;;;;;;5045948;28;20022;-86
2022/11/18 05:29:10;;;;;;;77.07;31.40;;;15.40;66.50;;;;;;5036116;28;20025;-89
2022/11/18 05:31:36;;;;;;;83.18;33.55;;;15.20;66.50;;;;;;5045604;28;20029;-89
2022/11/18 05:34:02;;;;;;;76.70;31.25;;;15.30;66.80;;;;;;5053156;28;20024;-92
2022/11/18 05:36:28;;;;;;;69.18;28.33;;;15.40;66.40;;;;;;5052832;28;20025;-90
2022/11/18 05:38:56;;;;;;;76.78;33.25;;;15.70;65.40;;;;;;5053170;28;20055;-86
2022/11/18 05:44:06;;;;;;;95.25;32.72;;;15.80;65.50;;;;;;5053809;28;20048;-88
2022/11/18 05:46:32;;;;;;;71.10;28.77;;;15.50;66.10;;;;;;5045530;28;20030;-91
2022/11/18 05:48:58;;;;;;;57.88;26.08;;;15.00;67.20;;;;;;5051106;28;20029;-89
2022/11/18 05:51:23;;;;;;;97.97;32.00;;;14.70;67.90;;;;;;5051153;28;20025;-93
2022/11/18 05:53:51;;;;;;;86.88;31.88;;;14.80;68.80;;;;;;5036570;28;20025;-92
2022/11/18 05:56:24;;;;;;;82.70;30.83;;;14.90;68.10;;;;;;5038564;28;20032;-85
2022/11/18 05:58:50;;;;;;;70.70;29.75;;;15.00;68.30;;;;;;5035295;28;20390;-93
2022/11/18 06:01:24;;;;;;;75.47;30.08;;;14.70;68.50;;;;;;5047556;28;20091;-89
2022/11/18 06:03:50;;;;;;;59.40;27.80;;;14.90;68.50;;;;;;5035340;28;20068;-87
2022/11/18 06:06:19;;;;;;;50.88;26.67;;;15.00;67.50;;;;;;5035124;28;20026;-86
2022/11/18 06:09:11;;;;;;;55.30;26.40;;;14.90;67.60;;;;;;5036559;28;20021;-87
2022/11/18 06:11:45;;;;;;;77.43;32.75;;;15.00;67.20;;;;;;5035386;28;20482;-93
2022/11/18 06:14:18;;;;;;;81.40;32.75;;;15.00;67.50;;;;;;5036852;28;20030;-89
2022/11/18 06:16:55;;;;;;;75.15;31.88;;;15.10;67.90;;;;;;5045191;28;20131;-92
2022/11/18 06:19:21;;;;;;;86.15;32.08;;;15.40;66.80;;;;;;5055524;28;20029;-96
2022/11/18 06:21:49;;;;;;;83.57;33.83;;;15.50;66.60;;;;;;5047775;28;20033;-86
2022/11/18 06:24:19;;;;;;;67.65;28.58;;;15.60;66.10;;;;;;5043551;28;20021;-90
2022/11/18 06:26:45;;;;;;;71.32;29.55;;;15.40;66.70;;;;;;5039567;28;20782;-91
2022/11/18 06:29:13;;;;;;;65.68;27.58;;;15.30;66.80;;;;;;5034518;28;20033;-88
2022/11/18 06:31:39;;;;;;;58.22;27.02;;;15.20;67.40;;;;;;5046853;28;20025;-88
2022/11/18 06:34:08;;;;;;;54.15;24.25;;;15.30;66.80;;;;;;5050463;28;20053;-87
2022/11/18 06:36:40;;;;;;;56.92;26.60;;;15.40;66.50;;;;;;5048692;28;20032;-87
2022/11/18 06:39:10;;;;;;;51.35;23.25;;;15.70;66.00;;;;;;5049084;28;20024;-94
2022/11/18 06:41:40;;;;;;;;;;;15.90;65.10;;;;;;5067132;28;20051;-85
2022/11/18 06:44:34;;;;;;;53.45;23.95;;;15.90;64.80;;;;;;5066780;28;19956;-86
2022/11/18 06:47:02;;;;;;;46.42;22.50;;;16.20;64.00;;;;;;5049225;28;20037;-85
2022/11/18 06:49:47;;;;;;;44.67;22.30;;;16.40;63.20;;;;;;5050483;28;20028;-85
2022/11/18 06:52:15;;;;;;;44.95;21.60;;;16.30;63.70;;;;;;5057284;28;20080;-87
2022/11/18 06:54:42;;;;;;;40.28;21.85;;;16.40;63.30;;;;;;5040328;28;20104;-85
2022/11/18 06:57:08;;;;;;;44.50;22.35;;;16.50;63.10;;;;;;5082460;28;20013;-86
2022/11/18 06:59:44;;;;;;;35.00;20.25;;;16.70;62.40;;;;;;5078585;28;20047;-85
2022/11/18 07:02:10;;;;;;;39.35;21.40;;;16.70;62.40;;;;;;5075655;28;20025;-84
2022/11/18 07:04:39;;;;;;;37.38;20.90;;;16.70;62.40;;;;;;5085770;28;20037;-87
2022/11/18 07:07:14;;;;;;;35.40;20.00;;;16.80;61.60;;;;;;5078336;28;20056;-87
2022/11/18 07:09:40;;;;;;;47.20;25.33;;;16.50;62.30;;;;;;5065870;28;20032;-86
2022/11/18 07:12:05;;;;;;;42.42;23.17;;;16.10;63.30;;;;;;5052154;28;20029;-89
2022/11/18 07:14:49;;;;;;;47.20;24.02;;;15.50;64.70;;;;;;5041933;28;20067;-88
2022/11/18 07:17:15;;;;;;;43.97;22.90;;;15.20;66.50;;;;;;5044003;28;20109;-88
2022/11/18 07:19:41;;;;;;;40.47;22.85;;;15.30;65.90;;;;;;5023936;28;20117;-96
2022/11/18 07:22:10;;;;;;;39.47;20.48;;;15.50;64.60;;;;;;5038223;28;20025;-88
2022/11/18 07:24:39;;;;;;;39.60;21.55;;;15.40;64.80;;;;;;5042846;28;20065;-88
2022/11/18 07:27:05;;;;;;;41.03;22.92;;;15.70;65.10;;;;;;5053430;28;20028;-85
2022/11/18 07:29:36;;;;;;;36.33;20.92;;;15.80;64.30;;;;;;5053181;28;20032;-87
2022/11/18 07:32:03;;;;;;;49.85;23.63;;;15.60;64.80;;;;;;5062083;28;20068;-88
2022/11/18 07:34:29;;;;;;;44.60;25.05;;;15.20;65.80;;;;;;5056884;28;20028;-86
2022/11/18 07:37:02;;;;;;;42.45;23.75;;;15.10;66.30;;;;;;5057136;28;20039;-86
2022/11/18 07:39:28;;;;;;;43.05;25.05;;;15.40;66.00;;;;;;5056148;28;20035;-86
2022/11/18 07:41:54;;;;;;;49.00;25.50;;;15.90;64.60;;;;;;5056512;28;20051;-93
2022/11/18 07:44:20;;;;;;;52.10;26.35;;;16.00;64.00;;;;;;5072189;28;20409;-89
2022/11/18 07:46:45;;;;;;;46.13;23.77;;;15.90;63.70;;;;;;5037755;28;20033;-91
2022/11/18 07:49:11;;;;;;;43.13;23.60;;;15.50;64.40;;;;;;5059963;28;20100;-89
2022/11/18 07:51:39;;;;;;;40.70;21.67;;;15.50;65.00;;;;;;5056022;28;20060;-87
2022/11/18 07:54:10;;;;;;;38.38;21.17;;;15.70;65.10;;;;;;5042458;28;20467;-90
2022/11/18 07:56:36;;;;;;;42.55;21.40;;;16.00;63.50;;;;;;5054013;28;20029;-90
2022/11/18 07:59:03;;;;;;;42.35;21.20;;;16.20;63.70;;;;;;5046563;28;20048;-85
2022/11/18 08:01:38;;;;;;;37.83;20.65;;;16.30;63.20;;;;;;5049361;28;20029;-86
2022/11/18 08:04:16;;;;;;;39.55;21.50;;;16.50;63.00;;;;;;5052761;28;20186;-86
2022/11/18 08:06:45;;;;;;;44.10;23.00;;;16.10;63.30;;;;;;5052906;28;20075;-86
2022/11/18 08:09:13;;;;;;;44.63;23.17;;;15.40;65.00;;;;;;5042239;28;20032;-95
2022/11/18 08:11:42;;;;;;;42.10;22.27;;;14.90;66.10;;;;;;5065206;28;20396;-86
2022/11/18 08:14:11;;;;;;;45.72;22.13;;;14.60;67.40;;;;;;5063222;28;20094;-86
2022/11/18 08:16:37;;;;;;;42.83;22.00;;;14.60;68.10;;;;;;5065235;28;20032;-90
2022/11/18 08:19:08;;;;;;;43.72;22.80;;;14.60;67.80;;;;;;5066525;28;20056;-88
2022/11/18 08:21:34;;;;;;;43.08;21.45;;;14.70;67.30;;;;;;5044815;28;20021;-88
2022/11/18 08:24:09;;;;;;;41.08;21.67;;;14.80;66.80;;;;;;5020072;28;20041;-87
2022/11/18 08:26:36;;;;;;;48.38;21.95;;;14.70;67.40;;;;;;5047360;28;20045;-87
2022/11/18 08:29:03;;;;;;;43.55;21.60;;;14.90;67.30;;;;;;5045249;28;20026;-86
2022/11/18 08:31:29;;;;;;;43.38;22.10;;;15.10;66.40;;;;;;5045889;28;20025;-88
2022/11/18 08:34:15;;;;;;;37.38;21.00;;;15.30;66.00;;;;;;5055311;28;20018;-86
2022/11/18 08:36:49;;;;;;;39.67;19.95;;;15.40;65.70;;;;;;5048325;28;20069;-94
2022/11/18 08:39:14;;;;;;;37.92;19.83;;;15.60;64.70;;;;;;5052845;28;20120;-88
2022/11/18 08:41:58;;;;;;;34.08;19.15;;;15.60;65.10;;;;;;5055675;28;20036;-88
2022/11/18 08:44:32;;;;;;;39.40;21.92;;;15.60;64.40;;;;;;5063583;28;20041;-88
2022/11/18 08:47:03;;;;;;;41.67;20.25;;;15.40;64.60;;;;;;5059563;28;20029;-87
2022/11/18 08:49:29;;;;;;;50.50;27.63;;;15.20;66.10;;;;;;5064191;28;20021;-88
2022/11/18 08:51:55;;;;;;;38.67;20.95;;;15.60;65.30;;;;;;5066990;28;20079;-88
2022/11/18 08:54:21;;;;;;;36.42;18.77;;;15.50;64.70;;;;;;5065998;28;20037;-90
2022/11/18 08:56:49;;;;;;;40.33;19.70;;;15.00;66.10;;;;;;5058137;28;20032;-88
2022/11/18 08:59:15;;;;;;;37.92;20.52;;;14.80;66.80;;;;;;5061360;28;20096;-88
2022/11/18 09:02:04;;;;;;;36.17;22.55;;;14.70;66.60;;;;;;5065510;28;20025;-94
2022/11/18 09:04:33;;;;;;;29.90;19.48;;;14.80;66.00;;;;;;5055313;28;20117;-89
2022/11/18 09:07:11;;;;;;;30.92;19.85;;;15.00;65.50;;;;;;5066627;28;20033;-90
2022/11/18 09:09:41;;;;;;;30.60;19.70;;;15.10;65.50;;;;;;5068053;28;20029;-87
2022/11/18 09:12:32;;;;;;;29.85;19.13;;;15.10;65.10;;;;;;5067685;28;20016;-89
2022/11/18 09:14:58;;;;;;;29.38;18.80;;;15.60;64.50;;;;;;5065841;28;20029;-87
2022/11/18 09:17:32;;;;;;;30.20;18.75;;;15.90;63.00;;;;;;5060049;28;20032;-88
2022/11/18 09:20:02;;;;;;;30.95;18.75;;;15.70;63.80;;;;;;5065904;28;20092;-88
2022/11/18 09:22:29;;;;;;;31.85;19.13;;;15.60;63.60;;;;;;5058253;28;20422;-88
2022/11/18 09:24:55;;;;;;;31.30;19.83;;;15.40;64.70;;;;;;5064828;28;20033;-88
2022/11/18 09:27:20;;;;;;;35.03;21.52;;;15.60;63.90;;;;;;5065996;28;20049;-88
2022/11/18 09:29:56;;;;;;;36.17;21.27;;;15.70;64.30;;;;;;5063381;28;20033;-90
2022/11/18 09:32:22;;;;;;;35.92;21.27;;;16.10;63.20;;;;;;5065440;28;20032;-88
2022/11/18 09:34:50;;;;;;;31.85;19.80;;;16.30;62.50;;;;;;5071818;28;20072;-91
2022/11/18 09:37:17;;;;;;;36.10;21.40;;;16.20;62.80;;;;;;5067986;28;20021;-88
2022/11/18 09:39:50;;;;;;;36.78;21.35;;;15.90;63.50;;;;;;5069977;28;20036;-88
2022/11/18 09:42:34;;;;;;;34.55;20.05;;;15.30;64.90;;;;;;5054675;28;20027;-87
2022/11/18 09:45:18;;;;;;;37.65;21.23;;;15.50;64.60;;;;;;5073054;28;20059;-88
2022/11/18 09:48:18;;;;;;;35.58;20.38;;;15.70;64.60;;;;;;5073788;28;20028;-88
2022/11/18 09:50:46;;;;;;;35.15;20.35;;;15.80;63.90;;;;;;5072673;28;20082;-88
2022/11/18 09:53:40;;;;;;;36.03;19.67;;;15.60;63.90;;;;;;5072121;28;20021;-89
2022/11/18 09:56:15;;;;;;;38.63;19.95;;;15.50;64.20;;;;;;5072728;28;20029;-87
2022/11/18 09:58:47;;;;;;;37.00;21.20;;;15.90;63.70;;;;;;5072918;28;20021;-88
2022/11/18 10:01:23;;;;;;;36.38;20.45;;;15.90;63.60;;;;;;5066842;28;20037;-87
2022/11/18 10:03:52;;;;;;;42.28;20.15;;;16.20;63.10;;;;;;5072468;28;20045;-87
2022/11/18 10:06:51;;;;;;;35.15;20.67;;;16.30;63.20;;;;;;5073164;28;20075;-87
2022/11/18 10:10:04;;;;;;;36.50;20.50;;;16.60;62.50;;;;;;5073960;28;20012;-87
2022/11/18 10:13:07;;;;;;;;;;;16.90;61.50;;;;;;5073691;28;20021;-88
2022/11/18 10:15:52;;;;;;;33.42;19.73;;;16.80;61.10;;;;;;5013003;28;19909;-87
2022/11/18 10:19:02;;;;;;;34.42;19.95;;;16.80;61.70;;;;;;4996944;28;20034;-87
2022/11/18 10:21:57;;;;;;;31.58;19.30;;;16.20;62.60;;;;;;4997437;28;20014;-88
2022/11/18 10:24:38;;;;;;;29.90;18.30;;;15.90;63.40;;;;;;5011296;28;20042;-90
2022/11/18 10:27:10;;;;;;;31.20;18.85;;;16.20;62.40;;;;;;4995200;28;20034;-89
2022/11/18 10:29:48;;;;;;;28.33;18.55;;;16.30;62.80;;;;;;4994616;28;20058;-87
2022/11/18 10:32:18;;;;;;;29.50;19.15;;;16.50;62.40;;;;;;4993482;28;20026;-87
2022/11/18 10:35:30;;;;;;;31.05;18.65;;;16.90;62.00;;;;;;5011230;28;20014;-87
2022/11/18 10:38:22;;;;;;;34.17;19.23;;;16.70;61.70;;;;;;5011098;28;20026;-86
2022/11/18 10:40:54;;;;;;;38.53;22.13;;;16.50;62.20;;;;;;4991435;28;20077;-86
2022/11/18 10:44:00;;;;;;;29.15;17.67;;;16.30;62.60;;;;;;4976937;28;20027;-86
2022/11/18 10:46:31;;;;;;;31.10;18.83;;;16.10;62.90;;;;;;4976492;28;20055;-86
2022/11/18 10:49:16;;;;;;;32.10;17.65;;;16.20;62.60;;;;;;4976279;28;20035;-91
2022/11/18 10:52:06;;;;;;;30.95;19.20;;;16.20;62.90;;;;;;5004493;28;20510;-87
2022/11/18 10:54:38;;;;;;;31.95;18.73;;;16.30;62.10;;;;;;5032582;28;20022;-86
2022/11/18 10:57:22;;;;;;;30.15;18.65;;;15.90;63.10;;;;;;5032472;28;20036;-86
2022/11/18 11:00:32;;;;;;;31.83;18.70;;;16.00;63.80;;;;;;5030763;28;20042;-87
2022/11/18 11:02:58;;;;;;;32.15;20.35;;;16.10;62.20;;;;;;5007237;28;20152;-87
2022/11/18 11:05:26;;;;;;;28.40;17.65;;;15.90;63.90;;;;;;5032373;28;20085;-87
2022/11/18 11:08:21;;;;;;;29.77;18.98;;;16.10;62.60;;;;;;5031911;28;20028;-89
2022/11/18 11:11:04;;;;;;;26.95;17.48;;;16.00;63.50;;;;;;5031201;28;20042;-88
2022/11/18 11:13:39;;;;;;;29.10;18.40;;;16.20;62.20;;;;;;5032375;28;20032;-87
2022/11/18 11:16:44;;;;;;;28.33;16.88;;;16.00;62.60;;;;;;5032630;28;20091;-86
2022/11/18 11:19:16;;;;;;;29.33;18.52;;;15.60;63.10;;;;;;5073118;28;20032;-86
2022/11/18 11:21:42;;;;;;;34.72;20.25;;;15.40;65.20;;;;;;5071788;28;20016;-87
2022/11/18 11:24:18;;;;;;;30.40;18.08;;;15.40;64.30;;;;;;5070707;28;20063;-86
2022/11/18 11:26:58;;;;;;;30.42;19.67;;;15.30;64.30;;;;;;5069656;28;20017;-86
2022/11/18 11:30:14;;;;;;;27.67;17.75;;;15.60;63.90;;;;;;5072134;28;20029;-87
2022/11/18 11:33:26;;;;;;;30.05;17.42;;;15.30;65.20;;;;;;5071510;28;20017;-88
2022/11/18 11:36:22;;;;;;;31.98;18.42;;;15.30;65.60;;;;;;5014605;28;20034;-86
2022/11/18 11:39:29;;;;;;;33.90;19.40;;;15.70;64.60;;;;;;5014506;28;20032;-86
2022/11/18 11:42:31;;;;;;;31.95;17.65;;;16.20;63.40;;;;;;4953298;29;20104;-87
2022/11/18 11:45:34;;;;;;;28.65;17.92;;;16.70;62.70;;;;;;4947863;29;20035;-88
2022/11/18 11:48:36;;;;;;;32.33;18.10;;;16.70;61.40;;;;;;4947611;29;20034;-85
2022/11/18 11:51:23;;;;;;;103.13;46.78;;;17.00;61.20;;;;;;4952482;29;20024;-86
2022/11/18 11:54:10;;;;;;;45.63;25.05;;;17.30;60.90;;;;;;4953346;29;20024;-86
2022/11/18 11:56:58;;;;;;;38.45;21.40;;;17.50;60.50;;;;;;4953798;29;20027;-87
2022/11/18 11:59:54;;;;;;;32.20;19.13;;;17.70;60.20;;;;;;4952135;29;20059;-87
2022/11/18 12:02:44;;;;;;;34.35;19.55;;;17.70;59.50;;;;;;4936200;29;20538;-87
2022/11/18 12:05:10;;;;;;;33.63;19.38;;;17.60;59.90;;;;;;4951689;29;20103;-88
2022/11/18 12:08:03;;;;;;;36.88;21.08;;;17.80;59.70;;;;;;4951241;29;20043;-86
2022/11/18 12:11:08;;;;;;;37.95;19.92;;;17.80;59.20;;;;;;4936562;29;20066;-87
2022/11/18 12:13:46;;;;;;;31.13;18.70;;;17.70;59.70;;;;;;4951164;29;20483;-86
2022/11/18 12:16:42;;;;;;;32.13;18.17;;;17.50;60.10;;;;;;4952034;29;20103;-86
2022/11/18 12:19:31;;;;;;;36.17;20.38;;;17.60;60.10;;;;;;4997560;28;20048;-86
2022/11/18 12:22:02;;;;;;;38.53;21.02;;;17.60;60.10;;;;;;5013160;28;20025;-86
2022/11/18 12:24:31;;;;;;;38.30;20.35;;;17.80;59.70;;;;;;5028553;28;20042;-88
2022/11/18 12:27:23;;;;;;;38.42;21.00;;;17.70;60.00;;;;;;5027988;28;20018;-86
2022/11/18 12:29:49;;;;;;;32.83;20.55;;;17.60;60.40;;;;;;5012534;28;20093;-87
2022/11/18 12:32:45;;;;;;;33.22;20.65;;;17.70;60.10;;;;;;5013217;28;20022;-87
2022/11/18 12:35:27;;;;;;;31.98;19.08;;;17.70;60.30;;;;;;5013385;28;20037;-87
2022/11/18 12:37:53;;;;;;;35.03;19.60;;;17.60;60.10;;;;;;5030129;28;20137;-87
2022/11/18 12:40:39;;;;;;;33.95;18.70;;;17.60;60.80;;;;;;5013049;28;20030;-87
2022/11/18 12:43:47;;;;;;;35.67;18.92;;;17.60;60.30;;;;;;5005158;28;20045;-86
2022/11/18 12:46:33;;;;;;;35.40;20.38;;;17.60;60.20;;;;;;5013238;28;20135;-87
2022/11/18 12:49:21;;;;;;;38.10;20.20;;;17.70;59.90;;;;;;5009143;28;20018;-86
2022/11/18 12:51:56;;;;;;;34.53;20.20;;;17.70;59.90;;;;;;5062170;28;20009;-86
2022/11/18 12:54:43;;;;;;;33.90;19.63;;;17.70;60.00;;;;;;5068413;28;20032;-87
2022/11/18 12:57:32;;;;;;;32.33;20.75;;;17.60;60.10;;;;;;5068369;28;20093;-88
2022/11/18 13:00:27;;;;;;;34.67;19.70;;;17.20;60.60;;;;;;5051879;28;20029;-86
2022/11/18 13:03:01;;;;;;;39.47;24.10;;;16.50;62.20;;;;;;5059852;28;20029;-88
2022/11/18 13:05:33;;;;;;;43.42;22.73;;;16.20;63.70;;;;;;5072964;28;20109;-86
2022/11/18 13:08:14;;;;;;;36.78;24.67;;;16.50;63.00;;;;;;5073411;28;20090;-87
2022/11/18 13:17:53;;;;;;;37.67;21.25;;;16.40;62.40;;;;;;5070256;28;20099;-86
2022/11/18 13:20:39;;;;;;;37.72;20.02;;;16.10;64.00;;;;;;5074718;28;20029;-86
2022/11/18 13:26:06;;;;;;;39.50;21.55;;;16.70;62.70;;;;;;5074680;28;20056;-86